Time;durP1;ratioP1;P1;durP2;ratioP2;P2;SDS_P1;SDS_P2;PMS_P1;PMS_P2;Temp;Humidity;BMP_temperature;BMP_pressure;BME280_temperature;BME280_humidity;BME280_pressure;Samples;Min_cycle;Max_cycle;Signal;HPM_P1;HPM_P2
2023/05/15 00:00:27;;;;;;;4.50;4.30;;;20.40;50.00;;;;;;5014421;28;20298;-78
2023/05/15 00:02:54;;;;;;;5.10;4.90;;;20.50;50.10;;;;;;5011541;28;20211;-78
2023/05/15 00:05:20;;;;;;;5.07;4.87;;;20.40;50.10;;;;;;5011409;28;20307;-78
2023/05/15 00:07:45;;;;;;;4.83;4.63;;;20.40;50.00;;;;;;4995593;28;21045;-78
2023/05/15 00:10:11;;;;;;;4.47;4.23;;;20.40;50.00;;;;;;5013143;28;20956;-78
2023/05/15 00:12:37;;;;;;;4.57;4.27;;;20.40;50.00;;;;;;4996511;28;20283;-78
2023/05/15 00:15:02;;;;;;;5.20;4.90;;;20.40;50.00;;;;;;5011256;28;20245;-77
2023/05/15 00:17:28;;;;;;;4.93;4.73;;;20.40;50.00;;;;;;5010188;28;20669;-78
2023/05/15 00:19:56;;;;;;;5.10;4.83;;;20.40;50.10;;;;;;4995733;28;20230;-78
2023/05/15 00:22:22;;;;;;;5.53;5.07;;;20.40;50.10;;;;;;4992491;28;20709;-78
2023/05/15 00:24:48;;;;;;;4.83;4.60;;;20.40;50.10;;;;;;4999382;28;20472;-78
2023/05/15 00:27:13;;;;;;;5.00;4.70;;;20.50;50.20;;;;;;4992446;28;20431;-78
2023/05/15 00:29:39;;;;;;;5.30;5.00;;;20.40;50.20;;;;;;5007265;28;21555;-78
2023/05/15 00:32:05;;;;;;;4.87;4.57;;;20.50;50.20;;;;;;5010868;28;20219;-78
2023/05/15 00:34:30;;;;;;;5.10;4.90;;;20.40;50.00;;;;;;5010828;28;20234;-78
2023/05/15 00:36:56;;;;;;;4.67;4.37;;;20.40;50.10;;;;;;4991421;28;21033;-78
2023/05/15 00:39:21;;;;;;;4.87;4.67;;;20.40;50.10;;;;;;4997311;28;20249;-78
2023/05/15 00:41:48;;;;;;;5.10;4.70;;;20.40;50.00;;;;;;4992208;28;20245;-78
2023/05/15 00:44:16;;;;;;;5.17;4.87;;;20.40;50.10;;;;;;4995318;28;20678;-78
2023/05/15 00:46:44;;;;;;;5.20;4.90;;;20.40;50.10;;;;;;5010716;28;20438;-77
2023/05/15 00:49:12;;;;;;;4.80;4.60;;;20.40;50.20;;;;;;4997809;28;20465;-78
2023/05/15 00:51:41;;;;;;;4.80;4.60;;;20.40;50.10;;;;;;5011174;28;20538;-78
2023/05/15 00:54:07;;;;;;;5.40;5.10;;;20.50;50.30;;;;;;5004246;28;20473;-78
2023/05/15 00:56:33;;;;;;;5.10;4.80;;;20.50;50.40;;;;;;4983034;28;20478;-78
2023/05/15 00:59:02;;;;;;;5.50;5.10;;;20.50;50.30;;;;;;5002556;28;20492;-78
2023/05/15 01:01:32;;;;;;;5.23;4.90;;;20.50;50.30;;;;;;5009645;28;20215;-78
2023/05/15 01:03:58;;;;;;;4.67;4.47;;;20.40;50.20;;;;;;4994609;28;20989;-78
2023/05/15 01:06:24;;;;;;;5.20;5.00;;;20.40;50.20;;;;;;5004465;28;20949;-78
2023/05/15 01:08:52;;;;;;;5.53;5.23;;;20.40;50.30;;;;;;5012880;28;20214;-78
2023/05/15 01:11:17;;;;;;;5.37;5.17;;;20.40;50.20;;;;;;5012702;28;20803;-78
2023/05/15 01:13:43;;;;;;;5.30;5.00;;;20.40;50.30;;;;;;5013357;28;20437;-78
2023/05/15 01:16:09;;;;;;;5.07;4.80;;;20.40;50.20;;;;;;5002795;28;20963;-78
2023/05/15 01:18:35;;;;;;;4.93;4.73;;;20.40;50.30;;;;;;4988006;28;20716;-78
2023/05/15 01:21:03;;;;;;;5.23;4.93;;;20.40;50.30;;;;;;5006083;28;20461;-78
2023/05/15 01:24:19;;;;;;;5.00;4.70;;;20.40;50.30;;;;;;4999523;28;20322;-78
2023/05/15 01:27:15;;;;;;;5.03;4.83;;;20.40;50.30;;;;;;5007742;28;20473;-78
2023/05/15 01:29:56;;;;;;;5.33;5.03;;;20.40;50.40;;;;;;4995889;28;20430;-78
2023/05/15 01:32:42;;;;;;;4.90;4.70;;;20.40;50.40;;;;;;4986374;28;20466;-78
2023/05/15 01:35:27;;;;;;;4.67;4.40;;;20.40;50.40;;;;;;4999430;28;20555;-78
2023/05/15 01:38:26;;;;;;;4.80;4.60;;;20.40;50.40;;;;;;4985819;28;20461;-78
2023/05/15 01:41:04;;;;;;;5.17;4.77;;;20.40;50.40;;;;;;4986807;28;20877;-78
2023/05/15 01:43:33;;;;;;;6.17;5.87;;;20.40;50.40;;;;;;5009905;28;20464;-78
2023/05/15 01:45:58;;;;;;;5.27;4.80;;;20.40;50.40;;;;;;5016622;28;20831;-78
2023/05/15 01:48:26;;;;;;;5.90;5.50;;;20.40;50.40;;;;;;5011860;28;20556;-78
2023/05/15 01:50:57;;;;;;;4.83;4.63;;;20.40;50.40;;;;;;4996305;28;20229;-78
2023/05/15 01:53:22;;;;;;;5.53;5.23;;;20.40;50.40;;;;;;5010939;28;20499;-78
2023/05/15 01:55:49;;;;;;;5.00;4.70;;;20.40;50.50;;;;;;4994610;28;21119;-78
2023/05/15 01:58:15;;;;;;;5.20;4.90;;;20.40;50.40;;;;;;5010252;28;20250;-78
2023/05/15 02:00:42;;;;;;;5.30;5.00;;;20.40;50.40;;;;;;5009814;28;20523;-78
2023/05/15 02:03:08;;;;;;;5.13;4.93;;;20.40;50.40;;;;;;5011442;28;20314;-78
2023/05/15 02:05:34;;;;;;;4.60;4.40;;;20.40;50.50;;;;;;4993226;28;20432;-78
2023/05/15 02:08:03;;;;;;;5.47;5.17;;;20.40;50.50;;;;;;5011730;28;20471;-78
2023/05/15 02:10:29;;;;;;;5.10;4.80;;;20.40;51.10;;;;;;5008678;28;20659;-78
2023/05/15 02:12:55;;;;;;;5.17;4.93;;;20.40;50.40;;;;;;5008080;28;20465;-78
2023/05/15 02:15:22;;;;;;;4.80;4.50;;;20.40;50.40;;;;;;4996934;28;20487;-78
2023/05/15 02:17:47;;;;;;;5.27;4.97;;;20.40;50.50;;;;;;4989700;28;20473;-78
2023/05/15 02:20:13;;;;;;;4.50;4.30;;;20.40;50.40;;;;;;4992882;28;20495;-78
2023/05/15 02:22:39;;;;;;;5.50;5.20;;;20.40;50.40;;;;;;5011502;28;20223;-78
2023/05/15 02:25:04;;;;;;;5.73;5.30;;;20.40;50.50;;;;;;4985822;28;20579;-78
2023/05/15 02:27:56;;;;;;;5.20;4.90;;;20.40;50.40;;;;;;5006700;28;20685;-78
2023/05/15 02:30:30;;;;;;;5.60;5.20;;;20.40;50.40;;;;;;5001247;28;20218;-78
2023/05/15 02:33:11;;;;;;;6.03;5.53;;;20.40;50.50;;;;;;5008362;28;20972;-78
2023/05/15 02:35:53;;;;;;;4.93;4.73;;;20.40;50.40;;;;;;5006971;28;20543;-78
2023/05/15 02:38:26;;;;;;;5.90;5.50;;;20.40;50.40;;;;;;5004476;28;20450;-79
2023/05/15 02:40:55;;;;;;;5.40;5.00;;;20.40;50.40;;;;;;5003200;28;20443;-78
2023/05/15 02:43:21;;;;;;;5.40;5.10;;;20.40;50.40;;;;;;4997995;28;20465;-79
2023/05/15 02:45:47;;;;;;;5.73;5.30;;;20.40;50.40;;;;;;4985903;28;20427;-79
2023/05/15 02:48:14;;;;;;;5.03;4.83;;;20.40;50.50;;;;;;4995093;28;20596;-79
2023/05/15 02:50:41;;;;;;;4.90;4.60;;;20.40;50.40;;;;;;4985092;28;20456;-79
2023/05/15 02:53:08;;;;;;;4.67;4.47;;;20.40;50.40;;;;;;4997583;28;20435;-79
2023/05/15 02:55:34;;;;;;;4.67;4.47;;;20.40;50.40;;;;;;5014296;28;20590;-79
2023/05/15 02:58:01;;;;;;;5.47;5.13;;;20.40;50.40;;;;;;5008373;28;20465;-78
2023/05/15 03:00:26;;;;;;;5.57;5.23;;;20.40;50.40;;;;;;4994151;28;20464;-79
2023/05/15 03:02:52;;;;;;;4.70;4.50;;;20.40;50.40;;;;;;5010514;28;20463;-79
2023/05/15 03:05:17;;;;;;;5.40;5.17;;;20.40;50.40;;;;;;5016565;28;20211;-79
2023/05/15 03:07:43;;;;;;;5.60;5.20;;;20.40;50.40;;;;;;5009581;28;20280;-79
2023/05/15 03:10:09;;;;;;;5.63;5.33;;;20.30;50.30;;;;;;4995541;28;20792;-79
2023/05/15 03:12:34;;;;;;;4.93;4.63;;;20.40;50.40;;;;;;4993678;28;20254;-78
2023/05/15 03:15:00;;;;;;;5.10;4.90;;;20.40;50.40;;;;;;4999965;28;20226;-79
2023/05/15 03:17:26;;;;;;;5.47;5.17;;;20.40;50.40;;;;;;5009794;28;20931;-79
2023/05/15 03:19:52;;;;;;;4.80;4.50;;;20.30;50.30;;;;;;5010992;28;20222;-78
2023/05/15 03:22:17;;;;;;;6.00;5.60;;;20.40;50.40;;;;;;5015086;28;20225;-79
2023/05/15 03:24:43;;;;;;;4.87;4.67;;;20.30;50.30;;;;;;5007432;28;20338;-78
2023/05/15 03:27:08;;;;;;;5.07;4.80;;;20.40;50.40;;;;;;5003210;28;20223;-78
2023/05/15 03:29:34;;;;;;;5.10;4.83;;;20.40;50.40;;;;;;4996917;28;20218;-78
2023/05/15 03:31:59;;;;;;;5.70;5.40;;;20.30;50.30;;;;;;5003013;28;20234;-79
2023/05/15 03:34:25;;;;;;;5.50;5.20;;;20.40;50.40;;;;;;5000257;28;20238;-79
2023/05/15 03:36:50;;;;;;;5.30;4.90;;;20.30;50.40;;;;;;5012559;28;20224;-78
2023/05/15 03:39:16;;;;;;;5.40;5.10;;;20.30;50.30;;;;;;4985519;28;20575;-79
2023/05/15 03:41:41;;;;;;;5.73;5.37;;;20.30;50.30;;;;;;5015474;28;20230;-78
2023/05/15 03:44:07;;;;;;;5.67;5.37;;;20.30;50.30;;;;;;4993515;28;20233;-78
2023/05/15 03:46:33;;;;;;;5.10;4.90;;;20.30;50.30;;;;;;4999073;28;20222;-79
2023/05/15 03:48:58;;;;;;;4.47;4.27;;;20.30;50.30;;;;;;4998543;28;20266;-78
2023/05/15 03:51:24;;;;;;;5.60;5.20;;;20.40;51.10;;;;;;5001660;28;20707;-79
2023/05/15 03:53:50;;;;;;;5.37;5.07;;;20.40;50.40;;;;;;5014348;28;20273;-78
2023/05/15 03:56:15;;;;;;;5.50;5.20;;;20.30;50.30;;;;;;5000468;28;20223;-78
2023/05/15 03:58:41;;;;;;;5.10;4.80;;;20.30;50.30;;;;;;5014410;28;20217;-78
2023/05/15 04:01:07;;;;;;;5.20;4.93;;;20.30;50.40;;;;;;5011237;28;20683;-78
2023/05/15 04:03:32;;;;;;;5.43;5.13;;;20.40;50.40;;;;;;4996288;28;20238;-78
2023/05/15 04:05:58;;;;;;;5.93;5.63;;;20.30;50.30;;;;;;4988929;28;20232;-78
2023/05/15 04:08:24;;;;;;;4.80;4.60;;;20.40;50.50;;;;;;5009043;28;20350;-79
2023/05/15 04:10:50;;;;;;;5.50;5.20;;;20.30;50.30;;;;;;4986440;28;20231;-79
2023/05/15 04:13:16;;;;;;;5.67;5.37;;;20.40;50.40;;;;;;5001785;28;20231;-79
2023/05/15 04:15:42;;;;;;;6.33;5.83;;;20.40;50.30;;;;;;5004080;28;20810;-78
2023/05/15 04:18:07;;;;;;;5.00;4.70;;;20.40;50.20;;;;;;4992991;28;20290;-79
2023/05/15 04:20:33;;;;;;;4.67;4.47;;;20.40;50.10;;;;;;5000729;28;20234;-76
2023/05/15 04:22:58;;;;;;;5.47;5.17;;;20.40;50.10;;;;;;4990423;28;20232;-77
2023/05/15 04:25:24;;;;;;;5.30;5.00;;;20.40;50.10;;;;;;4982682;28;20223;-76
2023/05/15 04:27:50;;;;;;;4.93;4.63;;;20.40;50.00;;;;;;4980948;28;20219;-78
2023/05/15 04:30:16;;;;;;;5.67;5.27;;;20.40;50.00;;;;;;5001145;28;20254;-80
2023/05/15 04:32:42;;;;;;;7.30;6.70;;;20.50;50.10;;;;;;4995984;28;20233;-77
2023/05/15 04:35:09;;;;;;;6.23;5.83;;;20.40;49.90;;;;;;4982628;28;20718;-78
2023/05/15 04:37:38;;;;;;;5.60;5.30;;;20.40;49.80;;;;;;4986024;28;20212;-78
2023/05/15 04:40:06;;;;;;;5.50;5.20;;;20.40;49.80;;;;;;5002825;28;20512;-77
2023/05/15 04:42:32;;;;;;;5.63;5.33;;;20.50;49.80;;;;;;5002227;28;20475;-78
2023/05/15 04:44:58;;;;;;;5.23;5.00;;;20.50;49.90;;;;;;5003467;28;20812;-78
2023/05/15 04:47:24;;;;;;;5.07;4.77;;;20.40;49.80;;;;;;4992302;28;20471;-78
2023/05/15 04:49:50;;;;;;;5.47;5.20;;;20.40;49.70;;;;;;5007582;28;20218;-78
2023/05/15 04:52:16;;;;;;;5.43;4.93;;;20.40;49.80;;;;;;4999800;28;20219;-78
2023/05/15 04:54:41;;;;;;;5.50;5.20;;;20.40;50.50;;;;;;5003095;28;20329;-78
2023/05/15 04:57:07;;;;;;;4.80;4.60;;;20.40;49.90;;;;;;4995270;28;20553;-78
2023/05/15 04:59:33;;;;;;;4.80;4.60;;;20.40;49.80;;;;;;5006514;28;20229;-76
2023/05/15 05:01:59;;;;;;;5.20;4.90;;;20.40;49.80;;;;;;4986952;28;20434;-76
2023/05/15 05:04:25;;;;;;;5.03;4.83;;;20.40;49.80;;;;;;5005329;28;20235;-76
2023/05/15 05:06:50;;;;;;;5.70;5.40;;;20.40;49.80;;;;;;4998129;28;20219;-76
2023/05/15 05:09:18;;;;;;;6.07;5.57;;;20.40;49.80;;;;;;4988947;28;20348;-75
2023/05/15 05:11:43;;;;;;;4.83;4.63;;;20.40;49.80;;;;;;4995652;28;20238;-77
2023/05/15 05:14:13;;;;;;;5.00;4.60;;;20.40;49.80;;;;;;5003804;28;20456;-79
2023/05/15 05:16:39;;;;;;;17.93;5.00;;;20.40;49.80;;;;;;4973077;28;20278;-78
2023/05/15 05:19:05;;;;;;;5.30;4.80;;;20.40;49.80;;;;;;4987651;28;20794;-78
2023/05/15 05:21:31;;;;;;;5.90;4.47;;;20.40;49.70;;;;;;4998071;28;20535;-78
2023/05/15 05:23:57;;;;;;;5.80;5.30;;;20.40;49.80;;;;;;5011064;28;20243;-77
2023/05/15 05:26:23;;;;;;;5.43;4.97;;;20.50;49.80;;;;;;5013530;28;20554;-78
2023/05/15 05:28:48;;;;;;;5.50;5.00;;;20.40;49.70;;;;;;4999293;28;20219;-78
2023/05/15 05:31:14;;;;;;;5.10;4.50;;;20.50;49.80;;;;;;5015506;28;20320;-78
2023/05/15 05:33:40;;;;;;;5.57;5.17;;;20.50;49.80;;;;;;5007618;28;20990;-78
2023/05/15 05:36:05;;;;;;;5.23;4.50;;;20.50;49.70;;;;;;5000924;28;20324;-77
2023/05/15 05:38:32;;;;;;;5.37;5.07;;;20.50;49.70;;;;;;5003739;28;20303;-77
2023/05/15 05:40:57;;;;;;;5.90;5.60;;;20.50;49.80;;;;;;5008976;28;20230;-77
2023/05/15 05:43:25;;;;;;;5.00;4.70;;;20.50;49.80;;;;;;5011802;28;20427;-78
2023/05/15 05:45:51;;;;;;;5.13;4.47;;;20.50;49.80;;;;;;5010463;28;20215;-77
2023/05/15 05:48:16;;;;;;;5.17;4.90;;;20.50;49.80;;;;;;4993498;28;20456;-77
2023/05/15 05:50:42;;;;;;;6.40;4.30;;;20.50;49.90;;;;;;5009313;28;20231;-77
2023/05/15 05:53:07;;;;;;;5.07;4.70;;;20.50;49.90;;;;;;5002396;28;20292;-77
2023/05/15 05:55:33;;;;;;;5.00;4.70;;;20.50;49.90;;;;;;5003503;28;20259;-77
2023/05/15 05:57:58;;;;;;;6.13;5.10;;;20.50;49.90;;;;;;4995864;28;20308;-78
2023/05/15 06:00:24;;;;;;;5.03;4.73;;;20.50;50.00;;;;;;5008527;28;20241;-76
2023/05/15 06:02:56;;;;;;;4.73;4.47;;;20.50;50.00;;;;;;5005895;28;20223;-76
2023/05/15 06:05:22;;;;;;;4.87;4.50;;;20.50;50.00;;;;;;4991898;28;20222;-76
2023/05/15 06:07:48;;;;;;;4.70;4.30;;;20.50;50.00;;;;;;5011915;28;20510;-76
2023/05/15 06:10:13;;;;;;;5.67;5.27;;;20.50;50.00;;;;;;5008885;28;20538;-76
2023/05/15 06:12:39;;;;;;;4.63;4.33;;;20.50;50.00;;;;;;4989165;28;20257;-76
2023/05/15 06:15:05;;;;;;;4.40;4.07;;;20.50;50.00;;;;;;5000342;28;20723;-75
2023/05/15 06:17:31;;;;;;;5.60;5.20;;;20.50;50.10;;;;;;5009243;28;20310;-76
2023/05/15 06:19:56;;;;;;;5.50;4.77;;;20.50;50.10;;;;;;5009247;28;20474;-75
2023/05/15 06:22:22;;;;;;;5.10;4.63;;;20.50;50.00;;;;;;4985266;28;22009;-75
2023/05/15 06:24:47;;;;;;;4.83;4.40;;;20.50;50.10;;;;;;5011223;28;20223;-76
2023/05/15 06:27:13;;;;;;;4.70;4.50;;;20.50;50.10;;;;;;5009469;28;20267;-75
2023/05/15 06:29:39;;;;;;;5.57;5.10;;;20.50;50.10;;;;;;5005396;28;20305;-75
2023/05/15 06:32:05;;;;;;;4.60;4.07;;;20.50;50.10;;;;;;5003928;28;20292;-75
2023/05/15 06:34:30;;;;;;;7.23;5.30;;;20.50;50.10;;;;;;4979815;28;20232;-75
2023/05/15 06:36:56;;;;;;;4.70;4.37;;;20.50;50.00;;;;;;4978906;28;20310;-76
2023/05/15 06:39:21;;;;;;;5.33;4.97;;;20.50;50.00;;;;;;4975616;28;20227;-75
2023/05/15 06:41:47;;;;;;;5.37;5.07;;;20.50;50.10;;;;;;5010039;28;20558;-75
2023/05/15 06:44:12;;;;;;;4.33;4.03;;;20.50;50.10;;;;;;4993863;28;20311;-76
2023/05/15 06:46:38;;;;;;;4.67;4.37;;;20.50;50.10;;;;;;5003289;28;20253;-75
2023/05/15 06:49:03;;;;;;;5.23;4.80;;;20.50;50.10;;;;;;4994722;28;20573;-75
2023/05/15 06:51:29;;;;;;;5.37;4.97;;;20.50;50.10;;;;;;5005319;28;20227;-75
2023/05/15 06:53:55;;;;;;;4.70;4.40;;;20.50;50.10;;;;;;5014119;28;20211;-75
2023/05/15 06:56:20;;;;;;;4.87;4.57;;;20.50;50.10;;;;;;5001853;28;20230;-75
2023/05/15 06:58:46;;;;;;;4.67;4.37;;;20.50;50.10;;;;;;5010648;28;20227;-75
2023/05/15 07:01:12;;;;;;;4.70;4.30;;;20.50;50.10;;;;;;5010155;28;20227;-75
2023/05/15 07:03:37;;;;;;;4.37;4.07;;;20.50;50.10;;;;;;5014504;28;20221;-75
2023/05/15 07:06:03;;;;;;;4.63;4.43;;;20.50;50.10;;;;;;5007257;28;20807;-75
2023/05/15 07:08:28;;;;;;;4.60;4.40;;;20.50;50.10;;;;;;5005469;28;20215;-75
2023/05/15 07:10:54;;;;;;;5.00;4.60;;;20.50;50.10;;;;;;5002157;28;20310;-75
2023/05/15 07:13:20;;;;;;;4.20;3.97;;;20.50;50.10;;;;;;4997619;28;20211;-75
2023/05/15 07:15:46;;;;;;;4.73;4.47;;;20.50;50.10;;;;;;5004252;28;20245;-75
2023/05/15 07:18:11;;;;;;;4.47;4.27;;;20.50;50.20;;;;;;4993719;28;20254;-75
2023/05/15 07:20:37;;;;;;;4.67;4.47;;;20.50;50.10;;;;;;5013865;28;20297;-75
2023/05/15 07:23:03;;;;;;;4.90;4.60;;;20.50;50.10;;;;;;5006480;28;20285;-75
2023/05/15 07:25:29;;;;;;;4.87;4.57;;;20.50;50.20;;;;;;5010235;28;20219;-75
2023/05/15 07:27:55;;;;;;;5.00;4.70;;;20.50;50.20;;;;;;5004254;28;20828;-75
2023/05/15 07:30:21;;;;;;;5.47;4.83;;;20.50;50.10;;;;;;5003746;28;20467;-75
2023/05/15 07:32:47;;;;;;;5.83;5.33;;;20.50;50.10;;;;;;5015302;28;20219;-74
2023/05/15 07:35:12;;;;;;;4.70;4.50;;;20.50;50.10;;;;;;5010864;28;20880;-75
2023/05/15 07:37:38;;;;;;;4.60;4.33;;;20.50;50.10;;;;;;5008391;28;20233;-75
2023/05/15 07:40:04;;;;;;;4.87;4.50;;;20.50;50.20;;;;;;5005489;28;20301;-75
2023/05/15 07:42:30;;;;;;;5.03;4.73;;;20.50;50.10;;;;;;4994831;28;20223;-74
2023/05/15 07:44:55;;;;;;;4.90;4.60;;;20.50;50.10;;;;;;5010335;28;20468;-75
2023/05/15 07:47:21;;;;;;;4.30;4.10;;;20.50;50.20;;;;;;5008987;28;20326;-74
2023/05/15 07:49:47;;;;;;;5.13;4.90;;;20.50;50.10;;;;;;5012468;28;21422;-74
2023/05/15 07:52:12;;;;;;;4.97;4.57;;;20.50;50.10;;;;;;5003491;28;20227;-75
2023/05/15 07:54:40;;;;;;;4.90;4.70;;;20.50;50.10;;;;;;4999061;28;20259;-74
2023/05/15 07:57:06;;;;;;;4.73;4.50;;;20.50;50.00;;;;;;5008626;28;20690;-74
2023/05/15 07:59:32;;;;;;;4.47;4.17;;;20.50;50.10;;;;;;5006721;28;20502;-74
2023/05/15 08:01:58;;;;;;;5.53;5.23;;;20.50;50.10;;;;;;5007533;28;20461;-74
2023/05/15 08:04:23;;;;;;;5.53;5.23;;;20.50;50.10;;;;;;4992688;28;20215;-74
2023/05/15 08:06:49;;;;;;;5.10;4.80;;;20.50;50.10;;;;;;5010605;28;20252;-74
2023/05/15 08:09:14;;;;;;;4.53;4.33;;;20.50;50.00;;;;;;4986330;28;20253;-75
2023/05/15 08:11:40;;;;;;;4.30;4.10;;;20.50;50.10;;;;;;5007144;28;20227;-75
2023/05/15 08:14:05;;;;;;;5.23;4.97;;;20.60;50.20;;;;;;5009793;28;20302;-75
2023/05/15 08:16:31;;;;;;;4.50;4.30;;;20.50;50.10;;;;;;5001095;28;20229;-75
2023/05/15 08:19:00;;;;;;;4.70;4.30;;;20.50;50.00;;;;;;5002509;28;20233;-75
2023/05/15 08:21:26;;;;;;;4.90;4.60;;;20.60;50.10;;;;;;5006295;28;20282;-75
2023/05/15 08:23:52;;;;;;;4.97;4.73;;;20.60;50.20;;;;;;4983071;28;20458;-75
2023/05/15 08:26:17;;;;;;;4.43;4.23;;;20.60;50.10;;;;;;4996964;28;20485;-75
2023/05/15 08:28:43;;;;;;;4.83;4.40;;;20.60;50.10;;;;;;5005141;28;20271;-75
2023/05/15 08:31:08;;;;;;;5.27;5.00;;;20.60;50.20;;;;;;4998599;28;22305;-75
2023/05/15 08:33:34;;;;;;;4.30;4.00;;;20.60;50.10;;;;;;4997524;28;20689;-74
2023/05/15 08:35:59;;;;;;;4.87;4.57;;;20.60;50.10;;;;;;5002408;28;20246;-75
2023/05/15 08:38:25;;;;;;;4.83;4.63;;;20.60;50.10;;;;;;5006264;28;20226;-74
2023/05/15 08:40:53;;;;;;;4.53;4.23;;;20.60;50.10;;;;;;5007916;28;20273;-75
2023/05/15 08:43:21;;;;;;;5.17;4.87;;;20.60;50.20;;;;;;5003481;28;20226;-75
2023/05/15 08:45:48;;;;;;;4.37;4.17;;;20.60;50.10;;;;;;4995860;28;20952;-75
2023/05/15 08:48:16;;;;;;;4.83;4.53;;;20.60;50.10;;;;;;5016113;28;21003;-74
2023/05/15 08:50:43;;;;;;;5.23;4.93;;;20.60;50.10;;;;;;5012337;28;20466;-74
2023/05/15 08:53:13;;;;;;;4.13;3.93;;;20.60;50.10;;;;;;5010237;28;20451;-75
2023/05/15 08:55:39;;;;;;;4.70;4.40;;;20.60;50.10;;;;;;5011773;28;20464;-74
2023/05/15 08:58:06;;;;;;;4.17;3.97;;;20.60;50.20;;;;;;5010383;28;20484;-75
2023/05/15 09:00:32;;;;;;;4.10;3.90;;;20.60;50.10;;;;;;5011798;28;22998;-74
2023/05/15 09:03:00;;;;;;;4.27;4.07;;;20.60;50.10;;;;;;4991330;28;20735;-74
2023/05/15 09:05:27;;;;;;;4.10;3.90;;;20.60;50.10;;;;;;4993116;28;20219;-74
2023/05/15 09:07:53;;;;;;;4.20;4.00;;;20.60;50.10;;;;;;5014545;28;20520;-74
2023/05/15 09:10:20;;;;;;;4.87;4.67;;;20.60;50.10;;;;;;5000189;28;20465;-74
2023/05/15 09:12:48;;;;;;;4.53;4.33;;;20.60;50.10;;;;;;5011070;28;20929;-74
2023/05/15 09:15:21;;;;;;;4.50;4.30;;;20.60;50.10;;;;;;5006070;28;20472;-74
2023/05/15 09:17:47;;;;;;;4.50;4.30;;;20.60;50.10;;;;;;5010544;28;20493;-74
2023/05/15 09:20:34;;;;;;;5.30;5.00;;;20.60;50.10;;;;;;5012237;28;20479;-74
2023/05/15 09:23:02;;;;;;;4.33;4.13;;;20.60;50.10;;;;;;5001679;28;21018;-74
2023/05/15 09:25:41;;;;;;;4.17;3.97;;;20.60;50.20;;;;;;5010988;28;20427;-74
2023/05/15 09:28:23;;;;;;;4.33;4.13;;;20.60;50.20;;;;;;5005467;28;21265;-74
2023/05/15 09:30:49;;;;;;;5.30;5.00;;;20.60;50.20;;;;;;5000954;28;20534;-75
2023/05/15 09:33:15;;;;;;;5.27;4.97;;;20.60;50.10;;;;;;4994261;28;20439;-74
2023/05/15 09:35:41;;;;;;;4.23;4.03;;;20.60;50.10;;;;;;5005916;28;20246;-74
2023/05/15 09:38:11;;;;;;;4.30;4.10;;;20.60;50.10;;;;;;5007891;28;20456;-74
2023/05/15 09:40:38;;;;;;;4.10;3.90;;;20.60;50.00;;;;;;4998665;28;20626;-74
2023/05/15 09:43:03;;;;;;;4.73;4.53;;;20.60;50.10;;;;;;4981620;28;20523;-74
2023/05/15 09:45:30;;;;;;;3.90;3.70;;;20.60;50.00;;;;;;5004003;28;20469;-74
2023/05/15 09:47:58;;;;;;;4.10;3.90;;;20.60;50.00;;;;;;5005253;28;20297;-74
2023/05/15 09:50:30;;;;;;;4.10;3.90;;;20.60;50.00;;;;;;4991052;28;20475;-74
2023/05/15 09:52:58;;;;;;;6.07;5.67;;;20.60;50.00;;;;;;4994727;28;20452;-74
2023/05/15 09:55:24;;;;;;;4.80;4.50;;;20.60;50.00;;;;;;5009995;28;20491;-74
2023/05/15 09:58:05;;;;;;;4.43;4.23;;;20.60;50.00;;;;;;4990754;28;20922;-74
2023/05/15 10:00:31;;;;;;;4.30;4.10;;;20.60;50.00;;;;;;4998748;28;20229;-74
2023/05/15 10:02:59;;;;;;;5.03;4.83;;;20.60;50.00;;;;;;5010213;28;20509;-74
2023/05/15 10:05:29;;;;;;;4.27;4.07;;;20.60;50.00;;;;;;5011142;28;20475;-74
2023/05/15 10:07:55;;;;;;;4.10;3.90;;;20.60;50.00;;;;;;5005827;28;20432;-74
2023/05/15 10:10:21;;;;;;;4.67;4.47;;;20.60;50.00;;;;;;5011309;28;20530;-74
2023/05/15 10:12:49;;;;;;;5.33;5.00;;;20.70;50.00;;;;;;5011448;28;20955;-74
2023/05/15 10:15:17;;;;;;;5.40;5.10;;;20.60;50.00;;;;;;5009451;28;20476;-74
2023/05/15 10:17:44;;;;;;;3.83;3.63;;;20.70;50.00;;;;;;5008372;28;20483;-74
2023/05/15 10:20:11;;;;;;;4.60;4.40;;;20.60;50.00;;;;;;4992750;28;20444;-78
2023/05/15 10:22:40;;;;;;;4.20;4.00;;;20.60;50.00;;;;;;5000029;28;20966;-73
2023/05/15 10:25:30;;;;;;;4.50;4.30;;;20.60;50.00;;;;;;5013676;28;20451;-73
2023/05/15 10:27:57;;;;;;;4.33;4.13;;;20.60;49.90;;;;;;4997957;28;20461;-74
2023/05/15 10:30:24;;;;;;;4.73;4.50;;;20.60;50.00;;;;;;5009640;28;24769;-74
2023/05/15 10:32:50;;;;;;;4.90;4.70;;;20.60;50.00;;;;;;5011312;28;20477;-74
2023/05/15 10:35:16;;;;;;;4.40;4.20;;;20.60;49.80;;;;;;5017664;28;20475;-74
2023/05/15 10:37:45;;;;;;;4.97;4.70;;;20.60;49.90;;;;;;5015692;28;20459;-75
2023/05/15 10:40:13;;;;;;;4.93;4.63;;;20.60;50.00;;;;;;5019608;28;20423;-73
2023/05/15 10:42:42;;;;;;;5.13;4.83;;;20.60;49.90;;;;;;5009858;28;20433;-74
2023/05/15 10:45:09;;;;;;;4.30;4.10;;;20.60;49.80;;;;;;5014480;28;21007;-73
2023/05/15 10:47:36;;;;;;;4.13;3.93;;;20.60;49.80;;;;;;5006603;28;20438;-73
2023/05/15 10:50:03;;;;;;;4.67;4.47;;;20.70;49.90;;;;;;5015132;28;21160;-74
2023/05/15 10:52:35;;;;;;;4.60;4.40;;;20.60;49.80;;;;;;4984840;28;20816;-73
2023/05/15 10:55:02;;;;;;;5.00;4.70;;;20.70;49.90;;;;;;5005771;28;20467;-73
2023/05/15 10:57:28;;;;;;;4.60;4.30;;;20.70;49.90;;;;;;5007068;28;20779;-73
2023/05/15 10:59:54;;;;;;;4.40;4.20;;;20.70;49.90;;;;;;5001668;28;20470;-73
2023/05/15 11:02:28;;;;;;;5.20;4.90;;;20.70;49.90;;;;;;5002672;28;20427;-74
2023/05/15 11:05:02;;;;;;;4.93;4.67;;;20.70;49.90;;;;;;5005194;28;20460;-74
2023/05/15 11:07:28;;;;;;;4.27;4.07;;;20.70;49.90;;;;;;5001510;28;21234;-73
2023/05/15 11:09:55;;;;;;;4.03;3.83;;;20.70;49.90;;;;;;5009061;28;20520;-75
2023/05/15 11:12:22;;;;;;;4.10;3.90;;;20.70;49.90;;;;;;5003727;28;21080;-74
2023/05/15 11:14:50;;;;;;;4.20;4.00;;;20.70;49.80;;;;;;5000614;28;20472;-73
2023/05/15 11:17:17;;;;;;;4.40;4.20;;;20.70;49.90;;;;;;5013016;28;20475;-73
2023/05/15 11:19:48;;;;;;;3.97;3.77;;;20.70;49.90;;;;;;5010468;28;20465;-74
2023/05/15 11:22:13;;;;;;;4.20;4.00;;;20.70;49.80;;;;;;4986566;28;20460;-74
2023/05/15 11:24:53;;;;;;;4.43;4.23;;;20.70;49.80;;;;;;5018910;28;20470;-74
2023/05/15 11:27:25;;;;;;;3.80;3.60;;;20.70;49.80;;;;;;5009022;28;20565;-74
2023/05/15 11:30:08;;;;;;;5.00;4.70;;;20.70;49.80;;;;;;5009691;28;20468;-73
2023/05/15 11:32:46;;;;;;;4.27;4.07;;;20.70;49.80;;;;;;5002445;28;20544;-75
2023/05/15 11:35:27;;;;;;;3.80;3.60;;;20.70;49.80;;;;;;5013075;28;20464;-73
2023/05/15 11:38:00;;;;;;;4.07;3.87;;;20.70;49.80;;;;;;5007144;28;20661;-74
2023/05/15 11:40:47;;;;;;;3.87;3.67;;;20.70;49.80;;;;;;5003796;28;20536;-74
2023/05/15 11:43:17;;;;;;;4.70;4.50;;;20.70;49.80;;;;;;4997332;28;20432;-74
2023/05/15 11:45:45;;;;;;;3.90;3.70;;;20.70;49.80;;;;;;5017457;28;20509;-73
2023/05/15 11:48:15;;;;;;;3.63;3.43;;;20.70;49.80;;;;;;5015480;28;20468;-73
2023/05/15 11:50:41;;;;;;;4.07;3.87;;;20.70;49.80;;;;;;4994024;28;20452;-75
2023/05/15 11:53:08;;;;;;;4.07;3.87;;;20.70;49.70;;;;;;4999185;28;20475;-74
2023/05/15 11:55:36;;;;;;;4.20;4.00;;;20.70;49.70;;;;;;5013997;28;20463;-75
2023/05/15 11:58:03;;;;;;;3.83;3.63;;;20.70;49.70;;;;;;5011958;28;20449;-74
2023/05/15 12:00:29;;;;;;;3.97;3.77;;;20.70;49.70;;;;;;5013157;28;20544;-75
2023/05/15 12:02:55;;;;;;;3.93;3.73;;;20.70;49.80;;;;;;5007250;28;20453;-74
2023/05/15 12:05:21;;;;;;;3.50;3.30;;;20.70;49.70;;;;;;5001684;28;20465;-74
2023/05/15 12:07:47;;;;;;;4.00;3.80;;;20.70;49.70;;;;;;5011492;28;20277;-75
2023/05/15 12:10:13;;;;;;;3.73;3.53;;;20.70;49.70;;;;;;5018521;28;20468;-73
2023/05/15 12:12:40;;;;;;;3.90;3.70;;;20.70;49.70;;;;;;5010770;28;20464;-74
2023/05/15 12:15:10;;;;;;;4.13;3.93;;;20.70;49.70;;;;;;4998614;28;20475;-74
2023/05/15 12:17:37;;;;;;;4.00;3.80;;;20.70;49.70;;;;;;5009247;28;20496;-74
2023/05/15 12:20:06;;;;;;;4.37;4.17;;;20.70;49.70;;;;;;5014567;28;21131;-74
2023/05/15 12:22:41;;;;;;;4.10;3.90;;;20.70;49.70;;;;;;5006281;28;20469;-76
2023/05/15 12:25:10;;;;;;;4.30;4.00;;;20.70;49.60;;;;;;5011924;28;20471;-76
2023/05/15 12:27:36;;;;;;;4.30;4.10;;;20.80;49.80;;;;;;5013236;28;20430;-76
2023/05/15 12:30:03;;;;;;;3.80;3.60;;;20.70;49.70;;;;;;5014590;28;20467;-76
2023/05/15 12:32:31;;;;;;;3.80;3.60;;;20.80;49.80;;;;;;5014864;28;20471;-76
2023/05/15 12:34:56;;;;;;;3.90;3.70;;;20.70;49.70;;;;;;5013624;28;20487;-76
2023/05/15 12:37:22;;;;;;;4.07;3.87;;;20.70;49.70;;;;;;5019374;28;20452;-76
2023/05/15 12:39:58;;;;;;;4.10;3.90;;;20.70;49.70;;;;;;5013464;28;20222;-76
2023/05/15 12:42:24;;;;;;;5.30;4.90;;;20.70;49.70;;;;;;5012088;28;20227;-76
2023/05/15 12:44:54;;;;;;;4.50;4.30;;;20.70;49.60;;;;;;4996782;28;20802;-75
2023/05/15 12:47:24;;;;;;;4.30;3.97;;;20.70;49.70;;;;;;5018984;28;20445;-76
2023/05/15 12:49:53;;;;;;;4.30;4.10;;;20.70;49.60;;;;;;5017089;28;20459;-76